createdAt,value
2018-12-03T00:00:10.178Z,95.02
2018-12-03T00:06:05.177Z,100.56
2018-12-03T00:12:00.187Z,101.19
2018-12-03T00:17:55.162Z,84.51
2018-12-03T00:23:50.218Z,79.7
2018-12-03T00:29:45.155Z,68.23
2018-12-03T00:35:40.167Z,67.6
2018-12-03T00:41:35.165Z,71.05
2018-12-03T00:47:30.160Z,68.13
2018-12-03T00:53:25.178Z,69.22
2018-12-03T00:59:20.159Z,67.49
2018-12-03T01:05:15.190Z,70.45
2018-12-03T01:11:10.226Z,71.67
2018-12-03T01:17:05.179Z,78.52
2018-12-03T01:23:00.190Z,67.37
2018-12-03T01:28:55.177Z,68.98
2018-12-03T01:34:50.188Z,70.57
2018-12-03T01:40:45.250Z,74.17
2018-12-03T01:46:40.194Z,73.47
2018-12-03T01:52:35.201Z,73.17
2018-12-03T01:58:30.211Z,75.9
2018-12-03T02:04:25.226Z,72.99
2018-12-03T02:10:20.208Z,76.08
2018-12-03T02:16:15.249Z,71.6
2018-12-03T02:22:10.208Z,71.37
2018-12-03T02:28:05.240Z,68.85
2018-12-03T02:34:00.230Z,76.45
2018-12-03T02:39:55.242Z,68.98
2018-12-03T02:45:50.232Z,71.23
2018-12-03T02:51:45.232Z,68.76
2018-12-03T02:57:40.256Z,74.97
2018-12-03T03:03:35.274Z,68.29
2018-12-03T03:09:30.265Z,65.71
2018-12-03T03:15:25.262Z,65.92
2018-12-03T03:21:20.270Z,64.57
2018-12-03T03:27:15.313Z,65.47
2018-12-03T03:33:10.258Z,67.42
2018-12-03T03:39:05.279Z,65.89
2018-12-03T03:45:00.289Z,64.92
2018-12-03T03:50:55.262Z,67.68
2018-12-03T03:56:50.255Z,59.31
2018-12-03T04:02:45.272Z,60.79
2018-12-03T04:08:40.257Z,59.17
2018-12-03T04:14:35.282Z,56.74
2018-12-03T04:20:30.279Z,58.21
2018-12-03T04:26:25.269Z,53.69
2018-12-03T04:32:20.335Z,58.83
2018-12-03T04:38:15.291Z,53.2
2018-12-03T04:44:10.300Z,55.23
2018-12-03T04:50:05.301Z,56.02
2018-12-03T04:56:00.313Z,57.4
2018-12-03T05:01:55.367Z,54.33
2018-12-03T05:07:50.356Z,59.21
2018-12-03T05:13:45.307Z,62.13
2018-12-03T05:19:40.323Z,64.93
2018-12-03T05:25:35.323Z,65.4
2018-12-03T05:31:30.334Z,62.32
2018-12-03T05:37:25.309Z,57.31
2018-12-03T05:43:20.330Z,57.93
2018-12-03T05:49:15.363Z,54.81
2018-12-03T05:55:10.332Z,63.05
2018-12-03T06:01:05.347Z,67.32
2018-12-03T06:07:00.366Z,48.61
2018-12-03T06:12:55.388Z,42.47
2018-12-03T06:18:50.456Z,43.81
2018-12-03T06:24:45.404Z,37.11
2018-12-03T06:30:40.360Z,35.19
2018-12-03T06:36:35.364Z,32.96
2018-12-03T06:42:30.357Z,27.38
2018-12-03T06:48:25.359Z,28.7
2018-12-03T06:54:20.430Z,32.62
2018-12-03T07:00:15.393Z,30.98
2018-12-03T07:06:10.384Z,29.04
2018-12-03T07:12:05.365Z,22.66
2018-12-03T07:18:00.423Z,21.92
2018-12-03T07:23:55.373Z,20.94
2018-12-03T07:29:52.811Z,22.01
2018-12-03T07:35:45.409Z,23.86
2018-12-03T07:41:40.411Z,21.35
2018-12-03T07:47:35.431Z,17.98
2018-12-03T07:53:30.437Z,19.38
2018-12-03T07:59:25.390Z,26.32
2018-12-03T08:05:20.405Z,20.3
2018-12-03T08:11:15.435Z,18.03
2018-12-03T08:17:10.409Z,15.39
2018-12-03T08:23:05.407Z,16.03
2018-12-03T08:29:00.425Z,14.33
2018-12-03T08:34:55.449Z,16.16
2018-12-03T08:40:50.409Z,23.6
2018-12-03T08:46:45.439Z,21.79
2018-12-03T08:52:40.442Z,25.56
2018-12-03T08:58:35.450Z,20.81
2018-12-03T09:04:30.445Z,18.4
2018-12-03T09:10:25.477Z,18.65
2018-12-03T09:16:20.457Z,22.61
2018-12-03T09:22:15.457Z,37.05
2018-12-03T09:28:10.487Z,25.69
2018-12-03T09:34:05.489Z,26.13
2018-12-03T09:40:00.490Z,26.7
2018-12-03T09:45:55.528Z,36.09
2018-12-03T09:51:50.470Z,42.69
2018-12-03T09:57:45.542Z,56.84
2018-12-03T10:03:40.490Z,47.87
2018-12-03T10:09:35.483Z,36.71
2018-12-03T10:15:30.514Z,35.83
2018-12-03T10:21:25.493Z,55.3
2018-12-03T10:27:20.477Z,35.91
2018-12-03T10:33:15.547Z,31.15
2018-12-03T10:39:10.503Z,27.73
2018-12-03T10:45:05.509Z,27.5
2018-12-03T10:51:00.516Z,26.98
2018-12-03T10:56:55.521Z,29.24
2018-12-03T11:02:50.526Z,42.13
2018-12-03T11:08:45.510Z,46.21
2018-12-03T11:14:40.520Z,46.63
2018-12-03T11:20:35.542Z,51.99
2018-12-03T11:26:30.536Z,52.05
2018-12-03T11:32:25.534Z,51.15
2018-12-03T11:38:20.542Z,81.02
2018-12-03T11:44:15.527Z,67.74
2018-12-03T11:50:10.540Z,72.94
2018-12-03T11:56:05.533Z,60.75
2018-12-03T12:02:00.565Z,66.59
2018-12-03T12:07:55.563Z,59.98
2018-12-03T12:13:50.569Z,51.99
2018-12-03T12:19:45.546Z,55.92
2018-12-03T12:25:40.567Z,57.75
2018-12-03T12:31:35.586Z,63.79
2018-12-03T12:37:30.566Z,79.84
2018-12-03T12:43:25.626Z,72.83
2018-12-03T12:49:20.570Z,67.59
2018-12-03T12:55:15.576Z,97.67
2018-12-03T13:01:10.604Z,103.83
2018-12-03T13:07:05.577Z,84.67
2018-12-03T13:13:00.581Z,102.57
2018-12-03T13:18:55.567Z,112.82
2018-12-03T13:24:50.594Z,108.13
2018-12-03T13:30:45.627Z,112.79
2018-12-03T13:36:40.609Z,112.79
2018-12-03T13:42:35.625Z,126.02
2018-12-03T13:48:30.621Z,111.77
2018-12-03T13:54:25.614Z,118.65
2018-12-03T14:00:20.643Z,124.61
2018-12-03T14:06:15.601Z,148.19
2018-12-03T14:12:10.656Z,167.12
2018-12-03T14:18:05.619Z,191.48
2018-12-03T14:24:00.620Z,216.29
2018-12-03T14:29:55.654Z,190.79
2018-12-03T14:35:50.635Z,188.57
2018-12-03T14:41:45.638Z,169.72
2018-12-03T14:47:40.631Z,144.16
2018-12-03T14:53:35.653Z,159.42
2018-12-03T14:59:30.658Z,144.56
2018-12-03T15:05:25.724Z,155.06
2018-12-03T15:11:20.644Z,142.75
2018-12-03T15:17:15.654Z,141.13
2018-12-03T15:23:10.672Z,145.3
2018-12-03T15:29:05.669Z,138.91
2018-12-03T15:35:00.677Z,165.56
2018-12-03T15:40:55.697Z,148.02
2018-12-03T15:46:50.695Z,197.88
2018-12-03T15:52:45.675Z,163.7
2018-12-03T15:58:40.727Z,143.19
2018-12-03T16:04:35.680Z,164.32
2018-12-03T16:10:30.704Z,194
2018-12-03T16:16:25.700Z,205.1
2018-12-03T16:22:20.692Z,188.96
2018-12-03T16:28:15.694Z,190.38
2018-12-03T16:34:10.712Z,172.22
2018-12-03T16:40:05.714Z,173.15
2018-12-03T16:46:00.699Z,177.5
2018-12-03T16:51:55.712Z,185.82
2018-12-03T16:57:50.756Z,183.24
2018-12-03T17:03:45.714Z,196.56
2018-12-03T17:09:40.740Z,191.36
2018-12-03T17:15:36.622Z,204.31
2018-12-03T17:21:30.741Z,212.02
2018-12-03T17:27:25.725Z,226.1
2018-12-03T17:33:20.810Z,234.3
2018-12-03T17:39:15.744Z,250
2018-12-03T17:45:10.751Z,279.85
2018-12-03T17:51:06.884Z,279.53
2018-12-03T17:57:00.762Z,249.29
2018-12-03T18:02:55.754Z,273.17
2018-12-03T18:08:50.764Z,281.84
2018-12-03T18:14:45.794Z,292.58
2018-12-03T18:20:40.778Z,295.98
2018-12-03T18:26:35.828Z,266.2
2018-12-03T18:32:30.772Z,277.01
2018-12-03T18:38:25.785Z,294.72
2018-12-03T18:44:20.817Z,289.72
2018-12-03T18:50:15.800Z,283.77
2018-12-03T18:56:10.795Z,298.59
2018-12-03T19:02:05.790Z,350.66
2018-12-03T19:08:00.798Z,393.57
2018-12-03T19:13:55.794Z,371.93
2018-12-03T19:19:50.862Z,289.18
2018-12-03T19:25:45.798Z,290.95
2018-12-03T19:31:40.854Z,289.41
2018-12-03T19:37:35.825Z,235.88
2018-12-03T19:43:30.848Z,209.6
2018-12-03T19:49:25.873Z,243.53
2018-12-03T19:55:20.829Z,406.29
2018-12-03T20:01:15.852Z,287.73
2018-12-03T20:07:10.832Z,277.18
2018-12-03T20:13:05.856Z,256.63
2018-12-03T20:19:00.876Z,313.53
2018-12-03T20:24:55.837Z,231.07
2018-12-03T20:30:50.873Z,207.61
2018-12-03T20:36:45.891Z,201.04
2018-12-03T20:42:40.966Z,184.95
2018-12-03T20:48:35.863Z,179.17
2018-12-03T20:54:30.884Z,184.79
2018-12-03T21:00:25.869Z,193.81
2018-12-03T21:06:20.919Z,211.63
2018-12-03T21:12:15.873Z,221.14
2018-12-03T21:18:10.887Z,221.53
2018-12-03T21:24:05.891Z,223.26
2018-12-03T21:30:00.921Z,228.36
2018-12-03T21:35:55.936Z,270.49
2018-12-03T21:41:50.890Z,258.72
2018-12-03T21:47:45.916Z,225.08
2018-12-03T21:53:40.942Z,143.81
2018-12-03T21:59:35.925Z,138.31
2018-12-03T22:05:30.899Z,207.55
2018-12-03T22:11:25.962Z,277.03
2018-12-03T22:17:20.926Z,240.69
2018-12-03T22:23:15.918Z,226.65
2018-12-03T22:29:10.929Z,180.47
2018-12-03T22:35:05.974Z,137.27
2018-12-03T22:41:00.928Z,141.69
2018-12-03T22:46:55.939Z,142.06
2018-12-03T22:52:50.943Z,145.45
2018-12-03T22:58:45.982Z,125.65
2018-12-03T23:04:40.929Z,171.48
2018-12-03T23:10:35.942Z,220.62
2018-12-03T23:16:30.954Z,251.84
2018-12-03T23:22:25.995Z,280.18
2018-12-03T23:28:20.948Z,320.6
2018-12-03T23:34:15.964Z,421.8
2018-12-03T23:40:11.050Z,416
2018-12-03T23:46:06.007Z,294.47
2018-12-03T23:52:00.965Z,298.7
2018-12-03T23:57:55.986Z,272.87
